sensor_id;sensor_type;location;lat;lon;timestamp;temperature;humidity
76567;DHT22;65428;53.194;6.132;2024-02-26T00:01:26;2.70;99.90
76567;DHT22;65428;53.194;6.132;2024-02-26T00:03:52;2.70;99.90
76567;DHT22;65428;53.194;6.132;2024-02-26T00:06:19;2.90;99.90
76567;DHT22;65428;53.194;6.132;2024-02-26T00:08:46;2.80;99.90
76567;DHT22;65428;53.194;6.132;2024-02-26T00:11:11;3.00;99.90
76567;DHT22;65428;53.194;6.132;2024-02-26T00:13:37;2.60;99.90
76567;DHT22;65428;53.194;6.132;2024-02-26T00:16:04;2.60;99.90
76567;DHT22;65428;53.194;6.132;2024-02-26T00:18:29;2.80;99.90
76567;DHT22;65428;53.194;6.132;2024-02-26T00:20:55;2.50;99.90
76567;DHT22;65428;53.194;6.132;2024-02-26T00:23:21;2.50;99.90
76567;DHT22;65428;53.194;6.132;2024-02-26T00:25:48;2.80;99.90
76567;DHT22;65428;53.194;6.132;2024-02-26T00:28:14;2.60;99.90
76567;DHT22;65428;53.194;6.132;2024-02-26T00:30:39;2.60;99.90
76567;DHT22;65428;53.194;6.132;2024-02-26T00:33:05;2.60;99.90
76567;DHT22;65428;53.194;6.132;2024-02-26T00:35:30;2.70;99.90
76567;DHT22;65428;53.194;6.132;2024-02-26T00:37:56;2.60;99.90
76567;DHT22;65428;53.194;6.132;2024-02-26T00:40:24;2.60;99.90
76567;DHT22;65428;53.194;6.132;2024-02-26T00:42:49;2.60;99.90
76567;DHT22;65428;53.194;6.132;2024-02-26T00:45:15;2.50;99.90
76567;DHT22;65428;53.194;6.132;2024-02-26T00:47:42;2.80;99.90
76567;DHT22;65428;53.194;6.132;2024-02-26T00:50:08;2.80;99.90
76567;DHT22;65428;53.194;6.132;2024-02-26T00:52:34;2.60;99.90
76567;DHT22;65428;53.194;6.132;2024-02-26T00:55:01;2.70;99.90
76567;DHT22;65428;53.194;6.132;2024-02-26T00:57:27;2.60;99.90
76567;DHT22;65428;53.194;6.132;2024-02-26T00:59:52;2.70;99.90
76567;DHT22;65428;53.194;6.132;2024-02-26T01:02:18;2.60;99.90
76567;DHT22;65428;53.194;6.132;2024-02-26T01:04:44;2.70;99.90
76567;DHT22;65428;53.194;6.132;2024-02-26T01:07:09;2.70;99.90
76567;DHT22;65428;53.194;6.132;2024-02-26T01:09:35;2.70;99.90
76567;DHT22;65428;53.194;6.132;2024-02-26T01:12:01;2.70;99.90
76567;DHT22;65428;53.194;6.132;2024-02-26T01:14:28;2.80;99.90
76567;DHT22;65428;53.194;6.132;2024-02-26T01:16:53;2.70;99.90
76567;DHT22;65428;53.194;6.132;2024-02-26T01:19:19;2.70;99.90
76567;DHT22;65428;53.194;6.132;2024-02-26T01:21:45;3.00;99.90
76567;DHT22;65428;53.194;6.132;2024-02-26T01:24:11;2.60;99.90
76567;DHT22;65428;53.194;6.132;2024-02-26T01:26:36;3.00;99.90
76567;DHT22;65428;53.194;6.132;2024-02-26T01:29:05;2.80;99.90
76567;DHT22;65428;53.194;6.132;2024-02-26T01:31:34;2.80;99.90
76567;DHT22;65428;53.194;6.132;2024-02-26T01:34:01;2.70;99.90
76567;DHT22;65428;53.194;6.132;2024-02-26T01:36:26;2.60;99.90
76567;DHT22;65428;53.194;6.132;2024-02-26T01:38:52;2.90;99.90
76567;DHT22;65428;53.194;6.132;2024-02-26T01:41:18;2.60;99.90
76567;DHT22;65428;53.194;6.132;2024-02-26T01:43:43;2.60;99.90
76567;DHT22;65428;53.194;6.132;2024-02-26T01:46:12;2.60;99.90
76567;DHT22;65428;53.194;6.132;2024-02-26T01:48:42;2.60;99.90
76567;DHT22;65428;53.194;6.132;2024-02-26T01:51:08;2.60;99.90
76567;DHT22;65428;53.194;6.132;2024-02-26T01:53:35;2.60;99.90
76567;DHT22;65428;53.194;6.132;2024-02-26T01:56:01;2.60;99.90
76567;DHT22;65428;53.194;6.132;2024-02-26T01:58:27;2.70;99.90
76567;DHT22;65428;53.194;6.132;2024-02-26T02:00:53;2.60;99.90
76567;DHT22;65428;53.194;6.132;2024-02-26T02:03:19;2.70;99.90
76567;DHT22;65428;53.194;6.132;2024-02-26T02:05:45;2.50;99.90
76567;DHT22;65428;53.194;6.132;2024-02-26T02:08:11;2.50;99.90
76567;DHT22;65428;53.194;6.132;2024-02-26T02:10:38;2.50;99.90
76567;DHT22;65428;53.194;6.132;2024-02-26T02:13:04;2.60;99.90
76567;DHT22;65428;53.194;6.132;2024-02-26T02:15:29;2.60;99.90
76567;DHT22;65428;53.194;6.132;2024-02-26T02:17:55;2.60;99.90
76567;DHT22;65428;53.194;6.132;2024-02-26T02:20:33;2.60;99.90
76567;DHT22;65428;53.194;6.132;2024-02-26T02:22:59;3.00;99.90
76567;DHT22;65428;53.194;6.132;2024-02-26T02:25:25;2.60;99.90
76567;DHT22;65428;53.194;6.132;2024-02-26T02:27:51;2.60;99.90
76567;DHT22;65428;53.194;6.132;2024-02-26T02:30:18;2.60;99.90
76567;DHT22;65428;53.194;6.132;2024-02-26T02:32:45;2.60;99.90
76567;DHT22;65428;53.194;6.132;2024-02-26T02:35:10;2.60;99.90
76567;DHT22;65428;53.194;6.132;2024-02-26T02:37:36;2.60;99.90
76567;DHT22;65428;53.194;6.132;2024-02-26T02:40:03;2.70;99.90
76567;DHT22;65428;53.194;6.132;2024-02-26T02:42:28;2.60;99.90
76567;DHT22;65428;53.194;6.132;2024-02-26T02:44:54;2.80;99.90
76567;DHT22;65428;53.194;6.132;2024-02-26T02:47:20;2.50;99.90
76567;DHT22;65428;53.194;6.132;2024-02-26T02:49:45;2.50;99.90
76567;DHT22;65428;53.194;6.132;2024-02-26T02:52:11;2.50;99.90
76567;DHT22;65428;53.194;6.132;2024-02-26T02:54:36;2.50;99.90
76567;DHT22;65428;53.194;6.132;2024-02-26T02:57:05;2.50;99.90
76567;DHT22;65428;53.194;6.132;2024-02-26T02:59:31;2.60;99.90
76567;DHT22;65428;53.194;6.132;2024-02-26T03:01:57;2.60;99.90
76567;DHT22;65428;53.194;6.132;2024-02-26T03:04:22;2.60;99.90
76567;DHT22;65428;53.194;6.132;2024-02-26T03:06:48;2.50;99.90
76567;DHT22;65428;53.194;6.132;2024-02-26T03:09:14;2.40;99.90
76567;DHT22;65428;53.194;6.132;2024-02-26T03:11:39;2.90;99.90
76567;DHT22;65428;53.194;6.132;2024-02-26T03:14:05;2.80;99.90
76567;DHT22;65428;53.194;6.132;2024-02-26T03:16:32;3.00;99.90
76567;DHT22;65428;53.194;6.132;2024-02-26T03:18:58;2.80;99.90
76567;DHT22;65428;53.194;6.132;2024-02-26T03:21:25;2.40;99.90
76567;DHT22;65428;53.194;6.132;2024-02-26T03:23:51;2.60;99.90
76567;DHT22;65428;53.194;6.132;2024-02-26T03:26:17;2.60;99.90
76567;DHT22;65428;53.194;6.132;2024-02-26T03:28:42;2.80;99.90
76567;DHT22;65428;53.194;6.132;2024-02-26T03:31:08;2.60;99.90
76567;DHT22;65428;53.194;6.132;2024-02-26T03:33:34;2.90;99.90
76567;DHT22;65428;53.194;6.132;2024-02-26T03:36:00;2.60;99.90
76567;DHT22;65428;53.194;6.132;2024-02-26T03:38:25;2.90;99.90
76567;DHT22;65428;53.194;6.132;2024-02-26T03:40:51;2.60;99.90
76567;DHT22;65428;53.194;6.132;2024-02-26T03:43:17;2.70;99.90
76567;DHT22;65428;53.194;6.132;2024-02-26T03:45:43;2.70;99.90
76567;DHT22;65428;53.194;6.132;2024-02-26T03:48:08;2.70;99.90
76567;DHT22;65428;53.194;6.132;2024-02-26T03:50:34;2.70;99.90
76567;DHT22;65428;53.194;6.132;2024-02-26T03:53:00;2.70;99.90
76567;DHT22;65428;53.194;6.132;2024-02-26T03:55:25;2.70;99.90
76567;DHT22;65428;53.194;6.132;2024-02-26T03:57:52;2.70;99.90
76567;DHT22;65428;53.194;6.132;2024-02-26T04:00:18;2.70;99.90
76567;DHT22;65428;53.194;6.132;2024-02-26T04:02:43;2.70;99.90
76567;DHT22;65428;53.194;6.132;2024-02-26T04:05:10;2.90;99.90
76567;DHT22;65428;53.194;6.132;2024-02-26T04:07:36;2.80;99.90
76567;DHT22;65428;53.194;6.132;2024-02-26T04:10:02;2.50;99.90
76567;DHT22;65428;53.194;6.132;2024-02-26T04:12:30;2.70;99.90
76567;DHT22;65428;53.194;6.132;2024-02-26T04:14:56;2.80;99.90
76567;DHT22;65428;53.194;6.132;2024-02-26T04:17:22;2.80;99.90
76567;DHT22;65428;53.194;6.132;2024-02-26T04:19:47;2.60;99.90
76567;DHT22;65428;53.194;6.132;2024-02-26T04:22:13;2.90;99.90
76567;DHT22;65428;53.194;6.132;2024-02-26T04:24:38;2.80;99.90
76567;DHT22;65428;53.194;6.132;2024-02-26T04:27:04;2.80;99.90
76567;DHT22;65428;53.194;6.132;2024-02-26T04:29:30;2.90;99.90
76567;DHT22;65428;53.194;6.132;2024-02-26T04:31:55;2.90;99.90
76567;DHT22;65428;53.194;6.132;2024-02-26T04:34:21;2.90;99.90
76567;DHT22;65428;53.194;6.132;2024-02-26T04:36:47;3.10;99.90
76567;DHT22;65428;53.194;6.132;2024-02-26T04:39:13;3.00;99.90
76567;DHT22;65428;53.194;6.132;2024-02-26T04:41:39;3.00;99.90
76567;DHT22;65428;53.194;6.132;2024-02-26T04:44:05;3.00;99.90
76567;DHT22;65428;53.194;6.132;2024-02-26T04:46:31;3.00;99.90
76567;DHT22;65428;53.194;6.132;2024-02-26T04:48:56;3.30;99.90
76567;DHT22;65428;53.194;6.132;2024-02-26T04:51:22;3.20;99.90
76567;DHT22;65428;53.194;6.132;2024-02-26T04:53:48;3.40;99.90
76567;DHT22;65428;53.194;6.132;2024-02-26T04:56:14;3.10;99.90
76567;DHT22;65428;53.194;6.132;2024-02-26T04:58:39;3.10;99.90
76567;DHT22;65428;53.194;6.132;2024-02-26T05:01:05;3.10;99.90
76567;DHT22;65428;53.194;6.132;2024-02-26T05:03:31;3.20;99.90
76567;DHT22;65428;53.194;6.132;2024-02-26T05:05:57;3.50;99.90
76567;DHT22;65428;53.194;6.132;2024-02-26T05:08:23;3.20;99.90
76567;DHT22;65428;53.194;6.132;2024-02-26T05:10:49;3.30;99.90
76567;DHT22;65428;53.194;6.132;2024-02-26T05:13:15;3.30;99.90
76567;DHT22;65428;53.194;6.132;2024-02-26T05:15:43;3.30;99.90
76567;DHT22;65428;53.194;6.132;2024-02-26T05:18:09;3.30;99.90
76567;DHT22;65428;53.194;6.132;2024-02-26T05:20:35;3.50;99.90
76567;DHT22;65428;53.194;6.132;2024-02-26T05:23:01;3.30;99.90
76567;DHT22;65428;53.194;6.132;2024-02-26T05:25:27;3.50;99.90
76567;DHT22;65428;53.194;6.132;2024-02-26T05:27:52;3.30;99.90
76567;DHT22;65428;53.194;6.132;2024-02-26T05:30:18;3.60;99.90
76567;DHT22;65428;53.194;6.132;2024-02-26T05:32:44;3.40;99.90
76567;DHT22;65428;53.194;6.132;2024-02-26T05:35:10;3.40;99.90
76567;DHT22;65428;53.194;6.132;2024-02-26T05:37:39;3.40;99.90
76567;DHT22;65428;53.194;6.132;2024-02-26T05:40:05;3.40;99.90
76567;DHT22;65428;53.194;6.132;2024-02-26T05:42:31;3.50;99.90
76567;DHT22;65428;53.194;6.132;2024-02-26T05:44:57;3.70;99.90
76567;DHT22;65428;53.194;6.132;2024-02-26T05:47:25;3.60;99.90
76567;DHT22;65428;53.194;6.132;2024-02-26T05:49:51;3.50;99.90
76567;DHT22;65428;53.194;6.132;2024-02-26T05:52:17;3.50;99.90
76567;DHT22;65428;53.194;6.132;2024-02-26T05:54:42;3.50;99.90
76567;DHT22;65428;53.194;6.132;2024-02-26T05:57:08;3.50;99.90
76567;DHT22;65428;53.194;6.132;2024-02-26T05:59:33;4.10;99.90
76567;DHT22;65428;53.194;6.132;2024-02-26T06:01:59;3.60;99.90
76567;DHT22;65428;53.194;6.132;2024-02-26T06:04:25;3.70;99.90
76567;DHT22;65428;53.194;6.132;2024-02-26T06:06:50;3.90;99.90
76567;DHT22;65428;53.194;6.132;2024-02-26T06:09:16;3.60;99.90
76567;DHT22;65428;53.194;6.132;2024-02-26T06:11:42;3.60;99.90
76567;DHT22;65428;53.194;6.132;2024-02-26T06:14:07;3.70;99.90
76567;DHT22;65428;53.194;6.132;2024-02-26T06:16:34;3.60;99.90
76567;DHT22;65428;53.194;6.132;2024-02-26T06:19:00;3.80;99.90
76567;DHT22;65428;53.194;6.132;2024-02-26T06:21:26;4.00;99.90
76567;DHT22;65428;53.194;6.132;2024-02-26T06:23:51;3.60;99.90
76567;DHT22;65428;53.194;6.132;2024-02-26T06:26:17;3.70;99.90
76567;DHT22;65428;53.194;6.132;2024-02-26T06:28:43;3.70;99.90
76567;DHT22;65428;53.194;6.132;2024-02-26T06:31:08;3.80;99.90
76567;DHT22;65428;53.194;6.132;2024-02-26T06:33:34;3.50;99.90
76567;DHT22;65428;53.194;6.132;2024-02-26T06:36:00;3.90;99.90
76567;DHT22;65428;53.194;6.132;2024-02-26T06:38:25;4.00;99.90
76567;DHT22;65428;53.194;6.132;2024-02-26T06:40:51;3.80;99.90
76567;DHT22;65428;53.194;6.132;2024-02-26T06:43:17;3.70;99.90
76567;DHT22;65428;53.194;6.132;2024-02-26T06:45:42;3.90;99.90
76567;DHT22;65428;53.194;6.132;2024-02-26T06:48:08;3.80;99.90
76567;DHT22;65428;53.194;6.132;2024-02-26T06:50:34;4.00;99.90
76567;DHT22;65428;53.194;6.132;2024-02-26T06:53:00;3.80;99.90
76567;DHT22;65428;53.194;6.132;2024-02-26T06:55:26;3.90;99.90
76567;DHT22;65428;53.194;6.132;2024-02-26T06:57:56;4.00;99.90
76567;DHT22;65428;53.194;6.132;2024-02-26T07:00:22;3.90;99.90
76567;DHT22;65428;53.194;6.132;2024-02-26T07:02:48;4.00;99.90
76567;DHT22;65428;53.194;6.132;2024-02-26T07:05:13;4.20;99.90
76567;DHT22;65428;53.194;6.132;2024-02-26T07:07:39;3.90;99.90
76567;DHT22;65428;53.194;6.132;2024-02-26T07:10:06;4.10;99.90
76567;DHT22;65428;53.194;6.132;2024-02-26T07:12:34;3.90;99.90
76567;DHT22;65428;53.194;6.132;2024-02-26T07:15:07;4.00;99.90
76567;DHT22;65428;53.194;6.132;2024-02-26T07:17:33;4.00;99.90
76567;DHT22;65428;53.194;6.132;2024-02-26T07:20:15;3.90;99.90
76567;DHT22;65428;53.194;6.132;2024-02-26T07:22:40;4.00;99.90
76567;DHT22;65428;53.194;6.132;2024-02-26T07:25:10;4.00;99.90
76567;DHT22;65428;53.194;6.132;2024-02-26T07:27:41;4.40;99.90
76567;DHT22;65428;53.194;6.132;2024-02-26T07:30:07;4.10;99.90
76567;DHT22;65428;53.194;6.132;2024-02-26T07:32:36;4.10;99.90
76567;DHT22;65428;53.194;6.132;2024-02-26T07:35:02;4.30;99.90
76567;DHT22;65428;53.194;6.132;2024-02-26T07:37:32;4.10;99.90
76567;DHT22;65428;53.194;6.132;2024-02-26T07:39:58;4.00;99.90
76567;DHT22;65428;53.194;6.132;2024-02-26T07:42:30;4.10;99.90
76567;DHT22;65428;53.194;6.132;2024-02-26T07:44:55;4.30;99.90
76567;DHT22;65428;53.194;6.132;2024-02-26T07:47:21;4.10;99.90
76567;DHT22;65428;53.194;6.132;2024-02-26T07:49:47;4.30;99.90
76567;DHT22;65428;53.194;6.132;2024-02-26T07:52:12;4.20;99.90
76567;DHT22;65428;53.194;6.132;2024-02-26T07:54:38;4.50;99.90
76567;DHT22;65428;53.194;6.132;2024-02-26T07:57:04;4.30;99.90
76567;DHT22;65428;53.194;6.132;2024-02-26T07:59:31;4.30;99.90
76567;DHT22;65428;53.194;6.132;2024-02-26T08:01:57;4.20;99.90
76567;DHT22;65428;53.194;6.132;2024-02-26T08:04:23;4.40;99.90
76567;DHT22;65428;53.194;6.132;2024-02-26T08:06:48;4.50;99.90
76567;DHT22;65428;53.194;6.132;2024-02-26T08:09:14;4.30;99.90
76567;DHT22;65428;53.194;6.132;2024-02-26T08:11:43;4.40;99.90
76567;DHT22;65428;53.194;6.132;2024-02-26T08:14:08;4.40;99.90
76567;DHT22;65428;53.194;6.132;2024-02-26T08:16:34;4.60;99.90
76567;DHT22;65428;53.194;6.132;2024-02-26T08:19:00;4.40;99.90
76567;DHT22;65428;53.194;6.132;2024-02-26T08:21:26;4.60;99.90
76567;DHT22;65428;53.194;6.132;2024-02-26T08:23:51;4.60;99.90
76567;DHT22;65428;53.194;6.132;2024-02-26T08:26:17;4.60;99.90
76567;DHT22;65428;53.194;6.132;2024-02-26T08:28:43;4.70;99.90
76567;DHT22;65428;53.194;6.132;2024-02-26T08:31:19;4.60;99.90
76567;DHT22;65428;53.194;6.132;2024-02-26T08:33:45;4.80;99.90
76567;DHT22;65428;53.194;6.132;2024-02-26T08:36:11;4.70;99.90
76567;DHT22;65428;53.194;6.132;2024-02-26T08:38:43;4.80;99.90
76567;DHT22;65428;53.194;6.132;2024-02-26T08:41:20;4.80;99.90
76567;DHT22;65428;53.194;6.132;2024-02-26T08:44:00;4.80;99.90
76567;DHT22;65428;53.194;6.132;2024-02-26T08:46:32;4.90;99.90
76567;DHT22;65428;53.194;6.132;2024-02-26T08:48:57;4.80;99.90
76567;DHT22;65428;53.194;6.132;2024-02-26T08:51:32;5.10;99.90
76567;DHT22;65428;53.194;6.132;2024-02-26T08:54:15;4.90;99.90
76567;DHT22;65428;53.194;6.132;2024-02-26T08:56:41;5.10;99.90
76567;DHT22;65428;53.194;6.132;2024-02-26T08:59:19;5.40;99.90
76567;DHT22;65428;53.194;6.132;2024-02-26T09:01:47;5.20;99.90
76567;DHT22;65428;53.194;6.132;2024-02-26T09:04:25;5.00;99.90
76567;DHT22;65428;53.194;6.132;2024-02-26T09:06:56;5.40;99.90
76567;DHT22;65428;53.194;6.132;2024-02-26T09:09:27;5.30;99.90
76567;DHT22;65428;53.194;6.132;2024-02-26T09:12:03;5.40;99.90
76567;DHT22;65428;53.194;6.132;2024-02-26T09:14:52;5.40;99.90
76567;DHT22;65428;53.194;6.132;2024-02-26T09:17:27;5.40;99.90
76567;DHT22;65428;53.194;6.132;2024-02-26T09:19:58;5.50;99.90
76567;DHT22;65428;53.194;6.132;2024-02-26T09:22:31;5.80;99.90
76567;DHT22;65428;53.194;6.132;2024-02-26T09:25:03;5.40;99.90
76567;DHT22;65428;53.194;6.132;2024-02-26T09:27:29;5.70;99.90
76567;DHT22;65428;53.194;6.132;2024-02-26T09:29:59;5.70;99.90
76567;DHT22;65428;53.194;6.132;2024-02-26T09:32:26;5.60;99.90
76567;DHT22;65428;53.194;6.132;2024-02-26T09:34:51;5.80;99.90
76567;DHT22;65428;53.194;6.132;2024-02-26T09:37:20;6.00;99.90
76567;DHT22;65428;53.194;6.132;2024-02-26T09:39:46;5.80;99.90
76567;DHT22;65428;53.194;6.132;2024-02-26T09:42:21;6.00;99.90
76567;DHT22;65428;53.194;6.132;2024-02-26T09:45:17;6.20;99.90
76567;DHT22;65428;53.194;6.132;2024-02-26T09:47:39;6.00;99.90
76567;DHT22;65428;53.194;6.132;2024-02-26T09:50:06;5.90;99.90
76567;DHT22;65428;53.194;6.132;2024-02-26T09:52:38;6.10;99.90
76567;DHT22;65428;53.194;6.132;2024-02-26T09:55:05;6.10;99.90
76567;DHT22;65428;53.194;6.132;2024-02-26T09:57:36;6.20;99.90
76567;DHT22;65428;53.194;6.132;2024-02-26T10:00:09;6.40;99.90
76567;DHT22;65428;53.194;6.132;2024-02-26T10:02:39;6.20;99.90
76567;DHT22;65428;53.194;6.132;2024-02-26T10:05:05;6.30;99.90
76567;DHT22;65428;53.194;6.132;2024-02-26T10:07:36;6.30;99.90
76567;DHT22;65428;53.194;6.132;2024-02-26T10:10:03;6.30;99.90
76567;DHT22;65428;53.194;6.132;2024-02-26T10:12:30;6.40;99.90
76567;DHT22;65428;53.194;6.132;2024-02-26T10:14:56;6.60;99.90
76567;DHT22;65428;53.194;6.132;2024-02-26T10:17:23;6.60;99.90
76567;DHT22;65428;53.194;6.132;2024-02-26T10:19:49;6.40;99.90
76567;DHT22;65428;53.194;6.132;2024-02-26T10:22:17;6.70;99.90
76567;DHT22;65428;53.194;6.132;2024-02-26T10:24:42;6.50;99.90
76567;DHT22;65428;53.194;6.132;2024-02-26T10:27:08;6.60;99.90
76567;DHT22;65428;53.194;6.132;2024-02-26T10:29:38;6.60;99.90
76567;DHT22;65428;53.194;6.132;2024-02-26T10:32:04;6.50;99.90
76567;DHT22;65428;53.194;6.132;2024-02-26T10:34:31;6.50;99.90
76567;DHT22;65428;53.194;6.132;2024-02-26T10:37:10;6.60;99.90
76567;DHT22;65428;53.194;6.132;2024-02-26T10:39:36;6.50;99.90
76567;DHT22;65428;53.194;6.132;2024-02-26T10:42:12;6.60;99.90
76567;DHT22;65428;53.194;6.132;2024-02-26T10:44:40;6.70;99.90
76567;DHT22;65428;53.194;6.132;2024-02-26T10:47:07;6.90;99.90
76567;DHT22;65428;53.194;6.132;2024-02-26T10:49:35;6.70;99.90
76567;DHT22;65428;53.194;6.132;2024-02-26T10:52:04;6.70;99.90
76567;DHT22;65428;53.194;6.132;2024-02-26T10:54:32;6.60;99.90
76567;DHT22;65428;53.194;6.132;2024-02-26T10:57:00;6.60;99.90
76567;DHT22;65428;53.194;6.132;2024-02-26T10:59:31;6.60;99.90
76567;DHT22;65428;53.194;6.132;2024-02-26T11:01:57;6.50;99.90
76567;DHT22;65428;53.194;6.132;2024-02-26T11:04:28;6.70;99.90
76567;DHT22;65428;53.194;6.132;2024-02-26T11:06:59;6.60;99.90
76567;DHT22;65428;53.194;6.132;2024-02-26T11:09:33;6.80;99.90
76567;DHT22;65428;53.194;6.132;2024-02-26T11:12:00;6.80;99.90
76567;DHT22;65428;53.194;6.132;2024-02-26T11:14:26;6.70;99.90
76567;DHT22;65428;53.194;6.132;2024-02-26T11:16:56;6.80;99.90
76567;DHT22;65428;53.194;6.132;2024-02-26T11:19:22;7.00;99.90
76567;DHT22;65428;53.194;6.132;2024-02-26T11:22:01;6.80;99.90
76567;DHT22;65428;53.194;6.132;2024-02-26T11:24:39;6.80;99.90
76567;DHT22;65428;53.194;6.132;2024-02-26T11:27:28;6.80;99.90
76567;DHT22;65428;53.194;6.132;2024-02-26T11:29:57;6.80;99.90
76567;DHT22;65428;53.194;6.132;2024-02-26T11:32:29;7.00;99.90
76567;DHT22;65428;53.194;6.132;2024-02-26T11:35:01;6.80;99.90
76567;DHT22;65428;53.194;6.132;2024-02-26T11:37:27;6.90;99.90
76567;DHT22;65428;53.194;6.132;2024-02-26T11:40:06;7.10;99.90
76567;DHT22;65428;53.194;6.132;2024-02-26T11:42:45;7.00;99.90
76567;DHT22;65428;53.194;6.132;2024-02-26T11:48:20;7.00;99.90
76567;DHT22;65428;53.194;6.132;2024-02-26T11:50:48;7.10;99.90
76567;DHT22;65428;53.194;6.132;2024-02-26T11:53:27;7.20;99.90
76567;DHT22;65428;53.194;6.132;2024-02-26T11:56:13;7.10;99.90
76567;DHT22;65428;53.194;6.132;2024-02-26T11:58:42;7.50;99.90
76567;DHT22;65428;53.194;6.132;2024-02-26T12:01:43;7.40;99.90
76567;DHT22;65428;53.194;6.132;2024-02-26T12:04:21;7.20;99.90
76567;DHT22;65428;53.194;6.132;2024-02-26T12:07:11;7.30;99.90
76567;DHT22;65428;53.194;6.132;2024-02-26T12:09:42;7.20;99.90
76567;DHT22;65428;53.194;6.132;2024-02-26T12:12:17;7.30;99.90
76567;DHT22;65428;53.194;6.132;2024-02-26T12:15:08;7.30;99.90
76567;DHT22;65428;53.194;6.132;2024-02-26T12:17:35;7.20;99.90
76567;DHT22;65428;53.194;6.132;2024-02-26T12:20:13;7.20;99.90
76567;DHT22;65428;53.194;6.132;2024-02-26T12:22:45;7.20;99.90
76567;DHT22;65428;53.194;6.132;2024-02-26T12:25:24;7.20;99.90
76567;DHT22;65428;53.194;6.132;2024-02-26T12:27:52;7.20;99.90
76567;DHT22;65428;53.194;6.132;2024-02-26T12:30:24;7.20;99.90
76567;DHT22;65428;53.194;6.132;2024-02-26T12:32:55;7.20;99.90
76567;DHT22;65428;53.194;6.132;2024-02-26T12:35:24;7.00;99.90
76567;DHT22;65428;53.194;6.132;2024-02-26T12:38:03;7.30;99.90
76567;DHT22;65428;53.194;6.132;2024-02-26T12:40:30;7.20;99.90
76567;DHT22;65428;53.194;6.132;2024-02-26T12:42:56;7.40;99.90
76567;DHT22;65428;53.194;6.132;2024-02-26T12:45:28;7.30;99.90
76567;DHT22;65428;53.194;6.132;2024-02-26T12:48:05;7.50;99.90
76567;DHT22;65428;53.194;6.132;2024-02-26T12:50:33;7.30;99.90
76567;DHT22;65428;53.194;6.132;2024-02-26T12:53:00;7.40;99.90
76567;DHT22;65428;53.194;6.132;2024-02-26T12:55:26;7.80;99.90
76567;DHT22;65428;53.194;6.132;2024-02-26T12:57:53;7.30;99.90
76567;DHT22;65428;53.194;6.132;2024-02-26T13:00:22;7.10;99.90
76567;DHT22;65428;53.194;6.132;2024-02-26T13:02:50;7.30;99.90
76567;DHT22;65428;53.194;6.132;2024-02-26T13:05:18;7.30;99.90
76567;DHT22;65428;53.194;6.132;2024-02-26T13:07:48;7.10;99.90
76567;DHT22;65428;53.194;6.132;2024-02-26T13:10:14;7.10;99.90
76567;DHT22;65428;53.194;6.132;2024-02-26T13:12:44;7.20;99.90
76567;DHT22;65428;53.194;6.132;2024-02-26T13:15:15;7.10;99.90
76567;DHT22;65428;53.194;6.132;2024-02-26T13:17:42;7.10;99.90
76567;DHT22;65428;53.194;6.132;2024-02-26T13:20:08;7.20;99.90
76567;DHT22;65428;53.194;6.132;2024-02-26T13:22:39;7.20;99.90
76567;DHT22;65428;53.194;6.132;2024-02-26T13:25:12;7.20;99.90
76567;DHT22;65428;53.194;6.132;2024-02-26T13:27:40;7.20;99.90
76567;DHT22;65428;53.194;6.132;2024-02-26T13:30:10;7.30;99.90
76567;DHT22;65428;53.194;6.132;2024-02-26T13:32:40;7.20;99.90
76567;DHT22;65428;53.194;6.132;2024-02-26T13:35:07;7.20;99.90
76567;DHT22;65428;53.194;6.132;2024-02-26T13:37:35;7.20;99.90
76567;DHT22;65428;53.194;6.132;2024-02-26T13:40:04;7.10;99.90
76567;DHT22;65428;53.194;6.132;2024-02-26T13:42:39;7.10;99.90
76567;DHT22;65428;53.194;6.132;2024-02-26T13:45:05;7.10;99.90
76567;DHT22;65428;53.194;6.132;2024-02-26T13:47:36;7.10;99.90
76567;DHT22;65428;53.194;6.132;2024-02-26T13:50:06;7.00;99.90
76567;DHT22;65428;53.194;6.132;2024-02-26T13:52:38;7.10;99.90
76567;DHT22;65428;53.194;6.132;2024-02-26T13:55:04;7.00;99.90
76567;DHT22;65428;53.194;6.132;2024-02-26T13:57:30;7.00;99.90
76567;DHT22;65428;53.194;6.132;2024-02-26T14:00:01;7.00;99.90
76567;DHT22;65428;53.194;6.132;2024-02-26T14:02:29;7.10;99.90
76567;DHT22;65428;53.194;6.132;2024-02-26T14:05:00;7.20;99.90
76567;DHT22;65428;53.194;6.132;2024-02-26T14:07:33;7.00;99.90
76567;DHT22;65428;53.194;6.132;2024-02-26T14:10:06;7.40;99.90
76567;DHT22;65428;53.194;6.132;2024-02-26T14:12:36;7.00;99.90
76567;DHT22;65428;53.194;6.132;2024-02-26T14:15:02;7.30;99.90
76567;DHT22;65428;53.194;6.132;2024-02-26T14:17:36;7.00;99.90
76567;DHT22;65428;53.194;6.132;2024-02-26T14:20:03;6.80;99.90
76567;DHT22;65428;53.194;6.132;2024-02-26T14:22:34;6.90;99.90
76567;DHT22;65428;53.194;6.132;2024-02-26T14:25:03;7.00;99.90
76567;DHT22;65428;53.194;6.132;2024-02-26T14:27:30;6.90;99.90
76567;DHT22;65428;53.194;6.132;2024-02-26T14:29:59;6.90;99.90
76567;DHT22;65428;53.194;6.132;2024-02-26T14:32:31;6.90;99.90
76567;DHT22;65428;53.194;6.132;2024-02-26T14:35:01;7.10;99.90
76567;DHT22;65428;53.194;6.132;2024-02-26T14:37:27;7.00;99.90
76567;DHT22;65428;53.194;6.132;2024-02-26T14:39:57;7.40;99.90
76567;DHT22;65428;53.194;6.132;2024-02-26T14:42:26;6.90;99.90
76567;DHT22;65428;53.194;6.132;2024-02-26T14:44:52;7.20;99.90
76567;DHT22;65428;53.194;6.132;2024-02-26T14:47:19;6.90;99.90
76567;DHT22;65428;53.194;6.132;2024-02-26T14:49:58;7.40;99.90
76567;DHT22;65428;53.194;6.132;2024-02-26T14:52:33;7.00;99.90
76567;DHT22;65428;53.194;6.132;2024-02-26T14:54:59;7.00;99.90
76567;DHT22;65428;53.194;6.132;2024-02-26T14:57:36;6.90;99.90
76567;DHT22;65428;53.194;6.132;2024-02-26T15:00:08;6.90;99.90
76567;DHT22;65428;53.194;6.132;2024-02-26T15:02:42;6.80;99.90
76567;DHT22;65428;53.194;6.132;2024-02-26T15:05:08;7.00;99.90
76567;DHT22;65428;53.194;6.132;2024-02-26T15:07:36;6.80;99.90
76567;DHT22;65428;53.194;6.132;2024-02-26T15:10:08;6.90;99.90
76567;DHT22;65428;53.194;6.132;2024-02-26T15:12:43;6.80;99.90
76567;DHT22;65428;53.194;6.132;2024-02-26T15:15:11;6.60;99.90
76567;DHT22;65428;53.194;6.132;2024-02-26T15:17:37;6.90;99.90
76567;DHT22;65428;53.194;6.132;2024-02-26T15:20:03;6.90;99.90
76567;DHT22;65428;53.194;6.132;2024-02-26T15:22:31;6.80;99.90
76567;DHT22;65428;53.194;6.132;2024-02-26T15:24:56;6.80;99.90
76567;DHT22;65428;53.194;6.132;2024-02-26T15:27:22;6.80;99.90
76567;DHT22;65428;53.194;6.132;2024-02-26T15:29:47;6.80;99.90
76567;DHT22;65428;53.194;6.132;2024-02-26T15:32:13;6.80;99.90
76567;DHT22;65428;53.194;6.132;2024-02-26T15:34:39;6.80;99.90
76567;DHT22;65428;53.194;6.132;2024-02-26T15:37:08;6.80;99.90
76567;DHT22;65428;53.194;6.132;2024-02-26T15:39:35;6.60;99.90
76567;DHT22;65428;53.194;6.132;2024-02-26T15:42:04;6.70;99.90
76567;DHT22;65428;53.194;6.132;2024-02-26T15:44:30;6.70;99.90
76567;DHT22;65428;53.194;6.132;2024-02-26T15:46:56;6.60;99.90
76567;DHT22;65428;53.194;6.132;2024-02-26T15:49:21;6.40;99.90
76567;DHT22;65428;53.194;6.132;2024-02-26T15:51:47;6.40;99.90
76567;DHT22;65428;53.194;6.132;2024-02-26T15:54:15;6.60;99.90